createdAt,value
2022-08-02T00:00:41.273Z,18.70
2022-08-02T00:03:09.871Z,18.70
2022-08-02T00:05:38.397Z,18.70
2022-08-02T00:08:08.774Z,18.60
2022-08-02T00:10:39.210Z,18.50
2022-08-02T00:13:07.805Z,18.50
2022-08-02T00:15:35.963Z,18.50
2022-08-02T00:18:04.329Z,18.50
2022-08-02T00:20:32.649Z,18.50
2022-08-02T00:23:01.122Z,18.40
2022-08-02T00:25:29.509Z,18.40
2022-08-02T00:27:59.097Z,18.40
2022-08-02T00:30:27.353Z,18.40
2022-08-02T00:32:55.686Z,18.30
2022-08-02T00:35:23.838Z,18.30
2022-08-02T00:37:51.930Z,18.40
2022-08-02T00:40:24.140Z,18.40
2022-08-02T00:43:06.727Z,18.40
2022-08-02T00:46:02.766Z,18.40
2022-08-02T00:48:23.997Z,18.40
2022-08-02T00:50:52.217Z,18.40
2022-08-02T00:53:20.493Z,18.40
2022-08-02T00:55:49.009Z,18.40
2022-08-02T00:58:18.769Z,18.40
2022-08-02T01:00:47.033Z,18.40
2022-08-02T01:03:15.235Z,18.40
2022-08-02T01:06:10.129Z,18.40
2022-08-02T01:08:32.256Z,18.40
2022-08-02T01:11:01.027Z,18.40
2022-08-02T01:13:31.093Z,18.40
2022-08-02T01:16:06.095Z,18.40
2022-08-02T01:18:40.863Z,18.40
2022-08-02T01:21:34.351Z,18.40
2022-08-02T01:24:19.933Z,18.40
2022-08-02T01:26:53.707Z,18.30
2022-08-02T01:29:29.133Z,18.30
2022-08-02T01:32:04.733Z,18.30
2022-08-02T01:34:38.636Z,18.40
2022-08-02T01:37:12.710Z,18.30
2022-08-02T01:39:43.307Z,18.30
2022-08-02T01:42:13.545Z,18.30
2022-08-02T01:44:44.635Z,18.20
2022-08-02T01:47:19.397Z,18.20
2022-08-02T01:49:51.770Z,18.20
2022-08-02T01:52:22.733Z,18.10
2022-08-02T01:54:53.586Z,18.10
2022-08-02T01:57:24.069Z,18.10
2022-08-02T01:59:56.842Z,18.10
2022-08-02T02:02:30.065Z,18.10
2022-08-02T02:05:01.069Z,18.10
2022-08-02T02:07:31.510Z,18.10
2022-08-02T02:10:00.873Z,18.10
2022-08-02T02:12:30.527Z,18.10
2022-08-02T02:15:01.497Z,18.10
2022-08-02T02:18:11.799Z,18.10
2022-08-02T02:20:20.974Z,18.10
2022-08-02T02:22:50.387Z,18.10
2022-08-02T02:25:24.950Z,18.00
2022-08-02T02:28:08.118Z,18.00
2022-08-02T02:30:40.096Z,18.00
2022-08-02T02:33:10.442Z,18.00
2022-08-02T02:35:39.492Z,18.00
2022-08-02T02:38:13.468Z,18.00
2022-08-02T02:40:43.194Z,18.00
2022-08-02T02:43:13.979Z,18.00
2022-08-02T02:45:44.688Z,18.00
2022-08-02T02:48:15.699Z,18.00
2022-08-02T02:50:44.905Z,18.00
2022-08-02T02:53:17.372Z,17.90
2022-08-02T02:56:02.062Z,17.90
2022-08-02T02:58:32.173Z,17.90
2022-08-02T03:01:19.765Z,17.90
2022-08-02T03:03:48.947Z,17.80
2022-08-02T03:06:17.232Z,17.80
2022-08-02T03:08:45.646Z,17.70
2022-08-02T03:11:16.475Z,17.70
2022-08-02T03:13:45.287Z,17.70
2022-08-02T03:16:14.938Z,17.80
2022-08-02T03:18:44.700Z,17.80
2022-08-02T03:21:14.625Z,17.70
2022-08-02T03:23:44.441Z,17.80
2022-08-02T03:26:12.791Z,17.80
2022-08-02T03:28:41.684Z,17.70
2022-08-02T03:31:09.927Z,17.70
2022-08-02T03:33:40.927Z,17.70
2022-08-02T03:36:12.697Z,17.70
2022-08-02T03:38:42.982Z,17.70
2022-08-02T03:41:13.894Z,17.70
2022-08-02T03:43:43.776Z,17.70
2022-08-02T03:46:14.041Z,17.80
2022-08-02T03:48:43.822Z,17.80
2022-08-02T03:51:12.775Z,17.80
2022-08-02T03:53:42.321Z,17.90
2022-08-02T03:56:11.561Z,17.90
2022-08-02T03:58:39.740Z,17.90
2022-08-02T04:01:09.062Z,17.90
2022-08-02T04:03:37.271Z,17.90
2022-08-02T04:06:07.494Z,17.90
2022-08-02T04:08:38.297Z,17.90
2022-08-02T04:11:24.743Z,17.90
2022-08-02T04:13:56.695Z,17.90
2022-08-02T04:16:32.722Z,17.90
2022-08-02T04:19:04.500Z,17.90
2022-08-02T04:21:49.103Z,17.90
2022-08-02T04:24:26.475Z,17.90
2022-08-02T04:27:06.698Z,17.90
2022-08-02T04:29:47.216Z,17.90
2022-08-02T04:32:16.343Z,17.90
2022-08-02T04:35:11.360Z,17.90
2022-08-02T04:37:35.386Z,18.00
2022-08-02T04:40:03.796Z,18.00
2022-08-02T04:42:31.975Z,18.00
2022-08-02T04:45:00.264Z,18.00
2022-08-02T04:48:01.961Z,18.00
2022-08-02T04:50:16.655Z,18.00
2022-08-02T04:52:46.251Z,18.00
2022-08-02T04:55:15.691Z,18.00
2022-08-02T04:57:59.013Z,18.00
2022-08-02T05:00:28.274Z,18.10
2022-08-02T05:02:58.261Z,18.10
2022-08-02T05:05:26.594Z,18.20
2022-08-02T05:07:56.853Z,18.30
2022-08-02T05:10:26.459Z,18.40
2022-08-02T05:12:54.564Z,18.40
2022-08-02T05:15:22.865Z,18.50
2022-08-02T05:17:51.061Z,18.60
2022-08-02T05:20:20.212Z,18.60
2022-08-02T05:22:48.935Z,18.60
2022-08-02T05:25:18.523Z,18.70
2022-08-02T05:27:46.697Z,18.70
2022-08-02T05:30:16.203Z,18.80
2022-08-02T05:32:45.939Z,18.90
2022-08-02T05:35:14.569Z,18.90
2022-08-02T05:37:42.967Z,18.90
2022-08-02T05:40:13.459Z,18.90
2022-08-02T05:42:45.698Z,18.90
2022-08-02T05:45:14.438Z,18.90
2022-08-02T05:47:42.600Z,19.00
2022-08-02T05:50:11.750Z,19.10
2022-08-02T05:52:52.708Z,19.20
2022-08-02T05:55:27.987Z,19.20
2022-08-02T05:58:06.171Z,19.40
2022-08-02T06:00:36.335Z,19.50
2022-08-02T06:03:17.800Z,19.50
2022-08-02T06:05:53.324Z,19.50
2022-08-02T06:08:22.678Z,19.60
2022-08-02T06:10:58.672Z,19.70
2022-08-02T06:13:28.600Z,19.80
2022-08-02T06:15:59.467Z,19.80
2022-08-02T06:18:29.271Z,19.90
2022-08-02T06:22:29.679Z,20.00
2022-08-02T06:23:57.367Z,20.10
2022-08-02T06:26:27.858Z,20.20
2022-08-02T06:28:59.227Z,20.20
2022-08-02T06:31:27.747Z,20.20
2022-08-02T06:33:56.147Z,20.30
2022-08-02T06:36:32.521Z,20.30
2022-08-02T06:39:05.567Z,20.50
2022-08-02T06:41:42.390Z,20.50
2022-08-02T06:44:45.652Z,20.50
2022-08-02T06:47:11.822Z,20.60
2022-08-02T06:49:52.129Z,20.60
2022-08-02T06:52:28.179Z,20.70
2022-08-02T06:54:58.281Z,20.80
2022-08-02T06:57:26.596Z,20.80
2022-08-02T06:59:56.832Z,20.90
2022-08-02T07:02:25.398Z,20.90
2022-08-02T07:04:53.702Z,21.00
2022-08-02T07:07:22.299Z,21.00
2022-08-02T07:09:56.346Z,21.10
2022-08-02T07:12:31.115Z,21.20
2022-08-02T07:15:02.811Z,21.30
2022-08-02T07:17:31.391Z,21.30
2022-08-02T07:19:59.799Z,21.30
2022-08-02T07:22:28.960Z,21.30
2022-08-02T07:24:58.546Z,21.40
2022-08-02T07:27:27.347Z,21.40
2022-08-02T07:29:57.420Z,21.50
2022-08-02T07:32:32.433Z,21.50
2022-08-02T07:35:06.857Z,21.50
2022-08-02T07:37:54.879Z,21.60
2022-08-02T07:40:25.153Z,21.60
2022-08-02T07:43:03.003Z,21.70
2022-08-02T07:45:33.298Z,21.80
2022-08-02T07:48:08.576Z,21.90
2022-08-02T07:50:36.999Z,21.90
2022-08-02T07:53:05.406Z,22.00
2022-08-02T07:55:40.153Z,22.10
2022-08-02T07:58:13.176Z,22.10
2022-08-02T08:00:43.490Z,22.20
2022-08-02T08:03:13.700Z,22.30
2022-08-02T08:05:42.356Z,22.40
2022-08-02T08:08:16.739Z,22.40
2022-08-02T08:10:46.330Z,22.50
2022-08-02T08:13:14.646Z,22.50
2022-08-02T08:15:50.105Z,22.60
2022-08-02T08:18:22.110Z,22.60
2022-08-02T08:20:51.697Z,22.70
2022-08-02T08:23:19.980Z,22.70
2022-08-02T08:25:48.467Z,22.80
2022-08-02T08:28:17.007Z,22.90
2022-08-02T08:30:45.260Z,22.90
2022-08-02T08:33:13.616Z,23.00
2022-08-02T08:35:43.643Z,23.00
2022-08-02T08:38:11.913Z,23.10
2022-08-02T08:40:42.198Z,23.20
2022-08-02T08:43:10.517Z,23.20
2022-08-02T08:45:39.218Z,23.30
2022-08-02T08:48:12.814Z,23.40
2022-08-02T08:50:47.631Z,23.50
2022-08-02T08:53:17.224Z,23.60
2022-08-02T08:55:49.779Z,23.70
2022-08-02T08:58:18.494Z,23.70
2022-08-02T09:00:48.587Z,23.60
2022-08-02T09:03:19.616Z,23.50
2022-08-02T09:05:50.019Z,23.50
2022-08-02T09:08:18.946Z,23.60
2022-08-02T09:10:48.534Z,23.70
2022-08-02T09:13:37.530Z,24.00
2022-08-02T09:16:12.633Z,24.10
2022-08-02T09:18:44.623Z,24.20
2022-08-02T09:21:16.005Z,24.40
2022-08-02T09:23:46.466Z,24.60
2022-08-02T09:26:15.949Z,24.90
2022-08-02T09:28:50.445Z,25.30
2022-08-02T09:31:20.978Z,25.60
2022-08-02T09:33:54.526Z,25.90
2022-08-02T09:36:25.819Z,26.00
2022-08-02T09:38:56.358Z,26.00
2022-08-02T09:41:26.783Z,25.90
2022-08-02T09:44:03.404Z,26.10
2022-08-02T09:46:37.896Z,26.00
2022-08-02T09:49:09.767Z,25.90
2022-08-02T09:51:41.214Z,26.10
2022-08-02T09:54:12.130Z,26.40
2022-08-02T09:56:46.385Z,26.30
2022-08-02T09:59:15.805Z,26.10
2022-08-02T10:01:51.701Z,25.90
2022-08-02T10:04:30.052Z,25.90
2022-08-02T10:07:04.317Z,26.20
2022-08-02T10:09:33.427Z,26.50
2022-08-02T10:12:01.830Z,26.90
2022-08-02T10:14:31.968Z,27.10
2022-08-02T10:17:00.259Z,27.30
2022-08-02T10:19:38.851Z,27.30
2022-08-02T10:22:20.154Z,27.20
2022-08-02T10:24:49.121Z,27.40
2022-08-02T10:27:20.447Z,27.70
2022-08-02T10:29:55.263Z,27.80
2022-08-02T10:32:28.524Z,28.10
2022-08-02T10:35:18.411Z,28.10
2022-08-02T10:37:54.040Z,28.20
2022-08-02T10:40:26.733Z,28.30
2022-08-02T10:42:56.240Z,28.40
2022-08-02T10:45:24.731Z,28.50
2022-08-02T10:48:01.649Z,28.60
2022-08-02T10:50:55.429Z,28.70
2022-08-02T10:53:27.226Z,29.00
2022-08-02T10:55:56.945Z,29.50
2022-08-02T10:58:29.385Z,29.90
2022-08-02T11:00:59.508Z,30.10
2022-08-02T11:03:43.064Z,30.00
2022-08-02T11:06:25.849Z,29.80
2022-08-02T11:09:32.836Z,29.80
2022-08-02T11:12:03.362Z,29.80
2022-08-02T11:14:32.413Z,29.90
2022-08-02T11:17:12.333Z,30.10
2022-08-02T11:20:18.042Z,29.90
2022-08-02T11:22:47.852Z,29.50
2022-08-02T11:26:01.033Z,29.30
2022-08-02T11:28:25.028Z,29.10
2022-08-02T11:31:03.318Z,29.10
2022-08-02T11:33:33.485Z,29.00
2022-08-02T11:36:07.382Z,29.20
2022-08-02T11:38:38.601Z,29.40
2022-08-02T11:41:46.416Z,29.20
2022-08-02T11:44:23.452Z,29.10
2022-08-02T11:46:56.822Z,28.80
2022-08-02T11:49:25.558Z,28.60
2022-08-02T11:52:00.482Z,28.60
2022-08-02T11:54:31.542Z,28.50
2022-08-02T11:57:23.329Z,28.40
2022-08-02T11:59:53.156Z,28.30
2022-08-02T12:02:22.838Z,28.30
2022-08-02T12:04:58.149Z,28.10
2022-08-02T12:07:35.142Z,28.00
2022-08-02T12:10:07.700Z,27.90
2022-08-02T12:12:49.123Z,27.90
2022-08-02T12:15:30.487Z,27.90
2022-08-02T12:18:16.474Z,27.90
2022-08-02T12:20:45.611Z,27.80
2022-08-02T12:23:14.664Z,28.00
2022-08-02T12:25:43.096Z,28.30
2022-08-02T12:28:18.152Z,28.60
2022-08-02T12:30:55.191Z,28.70
2022-08-02T12:33:25.502Z,28.60
2022-08-02T12:35:54.061Z,28.70
2022-08-02T12:38:22.954Z,28.80
2022-08-02T12:40:51.725Z,29.00
2022-08-02T12:43:23.177Z,29.00
2022-08-02T12:45:54.137Z,29.10
2022-08-02T12:48:37.470Z,29.00
2022-08-02T12:51:21.184Z,29.00
2022-08-02T12:53:58.893Z,28.90
2022-08-02T12:56:34.349Z,28.70
2022-08-02T12:59:04.965Z,28.70
2022-08-02T13:01:33.249Z,28.70
2022-08-02T13:04:09.059Z,28.90
2022-08-02T13:06:44.526Z,29.10
2022-08-02T13:09:17.969Z,29.30
2022-08-02T13:11:46.619Z,29.20
2022-08-02T13:14:16.776Z,29.30
2022-08-02T13:16:47.100Z,29.40
2022-08-02T13:19:16.409Z,29.40
2022-08-02T13:22:01.965Z,29.50
2022-08-02T13:24:39.911Z,29.60
2022-08-02T13:27:10.485Z,29.70
2022-08-02T13:29:40.367Z,29.80
2022-08-02T13:32:08.894Z,29.80
2022-08-02T13:34:37.601Z,29.80
2022-08-02T13:37:05.907Z,29.90
2022-08-02T13:39:34.166Z,29.90
2022-08-02T13:42:02.559Z,29.80
2022-08-02T13:44:31.282Z,29.80
2022-08-02T13:47:00.980Z,29.80
2022-08-02T13:49:49.641Z,29.80
2022-08-02T13:52:18.205Z,29.80
2022-08-02T13:54:46.455Z,29.80
2022-08-02T13:57:14.714Z,29.70
2022-08-02T13:59:57.199Z,29.70
2022-08-02T14:02:30.811Z,29.70
2022-08-02T14:04:59.067Z,29.70
2022-08-02T14:07:27.500Z,29.60
2022-08-02T14:09:55.817Z,29.50
2022-08-02T14:12:24.457Z,29.50
2022-08-02T14:14:52.808Z,29.50
2022-08-02T14:17:21.186Z,29.40
2022-08-02T14:19:51.845Z,29.40
2022-08-02T14:22:20.094Z,29.30
2022-08-02T14:24:48.354Z,29.30
2022-08-02T14:27:16.934Z,29.40
2022-08-02T14:29:46.695Z,29.30
2022-08-02T14:32:15.571Z,29.40
2022-08-02T14:34:45.196Z,29.40
2022-08-02T14:37:15.440Z,29.60
2022-08-02T14:40:00.381Z,29.40
2022-08-02T14:42:30.114Z,29.30
2022-08-02T14:44:58.778Z,29.30
2022-08-02T14:47:27.088Z,29.20
2022-08-02T14:49:55.459Z,29.10
2022-08-02T14:52:25.092Z,29.00
2022-08-02T14:54:53.654Z,28.90
2022-08-02T14:57:21.924Z,29.00
2022-08-02T14:59:52.344Z,29.00
2022-08-02T15:02:20.956Z,28.80
2022-08-02T15:04:49.160Z,28.80
2022-08-02T15:07:17.453Z,28.90
2022-08-02T15:09:47.565Z,28.90
2022-08-02T15:12:16.293Z,29.00
2022-08-02T15:14:44.785Z,29.20
2022-08-02T15:17:13.262Z,29.20
2022-08-02T15:19:57.830Z,29.20
2022-08-02T15:22:30.323Z,29.20
2022-08-02T15:25:01.744Z,29.00
2022-08-02T15:27:30.098Z,29.00
2022-08-02T15:30:01.133Z,28.90
2022-08-02T15:32:29.637Z,28.80
2022-08-02T15:34:57.845Z,28.70
2022-08-02T15:37:26.104Z,28.70
2022-08-02T15:40:01.098Z,28.70
2022-08-02T15:42:30.196Z,28.70
2022-08-02T15:45:00.822Z,28.80
2022-08-02T15:47:29.021Z,28.80
2022-08-02T15:49:58.617Z,28.80
2022-08-02T15:52:28.389Z,28.80
2022-08-02T15:55:06.704Z,28.80
2022-08-02T15:57:36.395Z,28.80
2022-08-02T16:00:06.115Z,28.80
2022-08-02T16:02:34.436Z,28.70
2022-08-02T16:05:03.535Z,28.60
2022-08-02T16:07:42.699Z,28.70
2022-08-02T16:10:13.462Z,28.60
2022-08-02T16:12:41.816Z,28.60
2022-08-02T16:15:10.951Z,28.50
2022-08-02T16:17:48.752Z,28.50
2022-08-02T16:20:22.843Z,28.40
2022-08-02T16:22:51.772Z,28.40
2022-08-02T16:25:21.522Z,28.30
2022-08-02T16:28:06.007Z,28.30
2022-08-02T16:30:36.945Z,28.30
2022-08-02T16:33:05.205Z,28.30
2022-08-02T16:35:34.881Z,28.20
2022-08-02T16:38:03.137Z,28.20
2022-08-02T16:40:34.400Z,28.10
2022-08-02T16:43:02.919Z,28.00
2022-08-02T16:45:38.132Z,27.90
2022-08-02T16:48:09.070Z,27.90
2022-08-02T16:50:38.337Z,27.80
2022-08-02T16:53:07.794Z,27.70
2022-08-02T16:55:38.017Z,27.70
2022-08-02T16:58:09.714Z,27.70
2022-08-02T17:00:38.802Z,27.70
2022-08-02T17:03:14.865Z,27.70
2022-08-02T17:05:56.381Z,27.60
2022-08-02T17:08:31.634Z,27.60
2022-08-02T17:11:03.182Z,27.50
2022-08-02T17:13:34.213Z,27.50
2022-08-02T17:16:20.658Z,27.50
2022-08-02T17:18:55.346Z,27.50
2022-08-02T17:21:24.182Z,27.50
2022-08-02T17:24:04.954Z,27.40
2022-08-02T17:26:37.641Z,27.30
2022-08-02T17:29:14.201Z,27.30
2022-08-02T17:32:05.557Z,27.30
2022-08-02T17:34:33.990Z,27.30
2022-08-02T17:37:05.529Z,27.20
2022-08-02T17:39:43.820Z,27.30
2022-08-02T17:42:23.366Z,27.30
2022-08-02T17:45:06.927Z,27.30
2022-08-02T17:50:39.724Z,27.20
2022-08-02T17:53:18.906Z,27.20
2022-08-02T17:55:51.146Z,27.20
2022-08-02T17:58:20.935Z,27.10
2022-08-02T18:00:49.260Z,27.10
2022-08-02T18:03:18.655Z,27.10
2022-08-02T18:05:53.681Z,27.00
2022-08-02T18:08:24.437Z,27.00
2022-08-02T18:10:53.623Z,27.00
2022-08-02T18:13:23.871Z,26.90
2022-08-02T18:15:59.110Z,26.90
2022-08-02T18:18:30.247Z,26.80
2022-08-02T18:21:15.675Z,26.80
2022-08-02T18:23:58.146Z,26.70
2022-08-02T18:26:28.719Z,26.70
2022-08-02T18:29:00.456Z,26.60
2022-08-02T18:31:29.095Z,26.60
2022-08-02T18:34:07.939Z,26.60
2022-08-02T18:36:36.505Z,26.60
2022-08-02T18:39:15.848Z,26.50
2022-08-02T18:41:45.196Z,26.50
2022-08-02T18:44:18.734Z,26.50
2022-08-02T18:46:49.216Z,26.40
2022-08-02T18:49:18.148Z,26.40
2022-08-02T18:51:46.743Z,26.30
2022-08-02T18:54:16.779Z,26.30
2022-08-02T18:56:59.663Z,26.30
2022-08-02T18:59:29.447Z,26.30
2022-08-02T19:02:06.259Z,26.20
2022-08-02T19:04:34.663Z,26.10
2022-08-02T19:07:06.933Z,26.10
2022-08-02T19:09:40.204Z,26.00
2022-08-02T19:12:11.318Z,26.00
2022-08-02T19:14:41.870Z,26.00
2022-08-02T19:17:53.388Z,25.90
2022-08-02T19:19:58.601Z,25.90
2022-08-02T19:22:27.298Z,25.80
2022-08-02T19:25:01.015Z,25.80
2022-08-02T19:27:32.465Z,25.70
2022-08-02T19:30:03.747Z,25.60
2022-08-02T19:32:41.531Z,25.50
2022-08-02T19:35:29.508Z,25.50
2022-08-02T19:38:11.427Z,25.40
2022-08-02T19:40:41.871Z,25.30
2022-08-02T19:44:27.032Z,25.20
2022-08-02T19:46:03.813Z,25.20
2022-08-02T19:48:32.158Z,25.10
2022-08-02T19:51:01.979Z,25.00
2022-08-02T19:53:47.539Z,24.90
2022-08-02T19:56:24.800Z,24.90
2022-08-02T19:58:55.731Z,24.80
2022-08-02T20:01:37.211Z,24.80
2022-08-02T20:04:13.796Z,24.70
2022-08-02T20:06:45.418Z,24.70
2022-08-02T20:09:16.671Z,24.60
2022-08-02T20:11:45.976Z,24.60
2022-08-02T20:14:14.499Z,24.50
2022-08-02T20:16:45.967Z,24.50
2022-08-02T20:19:14.371Z,24.40
2022-08-02T20:21:52.897Z,24.40
2022-08-02T20:24:26.528Z,24.30
2022-08-02T20:26:55.364Z,24.30
2022-08-02T20:29:43.720Z,24.20
2022-08-02T20:32:23.678Z,24.20
2022-08-02T20:35:11.495Z,24.10
2022-08-02T20:37:59.538Z,24.10
2022-08-02T20:40:29.886Z,24.00
2022-08-02T20:42:59.795Z,24.00
2022-08-02T20:45:28.545Z,24.00
2022-08-02T20:48:03.568Z,23.90
2022-08-02T20:53:55.017Z,23.80
2022-08-02T20:56:24.886Z,23.80
2022-08-02T20:58:54.484Z,23.80
2022-08-02T21:01:37.058Z,23.70
2022-08-02T21:04:13.197Z,23.70
2022-08-02T21:06:47.950Z,23.70
2022-08-02T21:09:52.588Z,23.60
2022-08-02T21:12:18.196Z,23.60
2022-08-02T21:14:50.493Z,23.60
2022-08-02T21:17:26.734Z,23.50
2022-08-02T21:20:01.283Z,23.50
2022-08-02T21:22:29.861Z,23.40
2022-08-02T21:24:58.071Z,23.40
2022-08-02T21:27:52.152Z,23.30
2022-08-02T21:30:17.483Z,23.30
2022-08-02T21:32:50.493Z,23.30
2022-08-02T21:35:21.203Z,23.20
2022-08-02T21:37:49.475Z,23.20
2022-08-02T21:40:27.091Z,23.20
2022-08-02T21:42:55.350Z,23.20
2022-08-02T21:45:23.571Z,23.20
2022-08-02T21:47:51.979Z,23.10
2022-08-02T21:50:21.829Z,23.10
2022-08-02T21:52:52.426Z,23.10
2022-08-02T21:55:24.313Z,23.00
2022-08-02T21:58:09.799Z,23.00
2022-08-02T22:00:38.340Z,23.00
2022-08-02T22:03:21.429Z,22.90
2022-08-02T22:05:52.537Z,22.90
2022-08-02T22:08:22.010Z,22.90
2022-08-02T22:11:04.590Z,22.90
2022-08-02T22:13:47.181Z,22.90
2022-08-02T22:16:18.339Z,22.80
2022-08-02T22:18:51.313Z,22.80
2022-08-02T22:21:27.665Z,22.80
2022-08-02T22:24:01.907Z,22.80
2022-08-02T22:26:30.393Z,22.80
2022-08-02T22:28:59.674Z,22.80
2022-08-02T22:31:41.087Z,22.80
2022-08-02T22:34:26.708Z,22.80
2022-08-02T22:36:59.384Z,22.70
2022-08-02T22:39:28.572Z,22.60
2022-08-02T22:44:44.889Z,22.60
2022-08-02T22:47:14.535Z,22.60
2022-08-02T22:49:54.261Z,22.60
2022-08-02T22:52:25.942Z,22.50
2022-08-02T22:54:54.830Z,22.50
2022-08-02T22:57:29.944Z,22.50
2022-08-02T22:58:48.666Z,27.30
2022-08-02T22:59:08.489Z,23.90
2022-08-02T23:00:00.020Z,22.40
2022-08-02T23:02:28.438Z,22.40
2022-08-02T23:04:58.350Z,22.40
2022-08-02T23:07:28.287Z,22.40
2022-08-02T23:10:06.084Z,22.40
2022-08-02T23:12:34.350Z,22.30
2022-08-02T23:15:02.855Z,22.30
2022-08-02T23:17:48.415Z,22.30
2022-08-02T23:20:16.700Z,22.30
2022-08-02T23:22:46.436Z,22.30
2022-08-02T23:25:15.941Z,22.20
2022-08-02T23:27:50.762Z,22.20
2022-08-02T23:30:19.451Z,22.20
2022-08-02T23:32:47.938Z,22.10
2022-08-02T23:35:17.419Z,22.20
2022-08-02T23:37:59.831Z,22.20
2022-08-02T23:40:39.805Z,22.10
2022-08-02T23:43:13.641Z,22.10
2022-08-02T23:45:45.666Z,22.10
2022-08-02T23:48:13.868Z,22.10
2022-08-02T23:50:41.965Z,22.00
2022-08-02T23:53:12.014Z,22.00
2022-08-02T23:55:40.092Z,22.00
2022-08-02T23:58:08.216Z,22.00
